Latest Weather Observations for Longreach

IDQ60801

Issued at 12:05 pm EST Thursday 24 July 2014 (issued every 30 minutes, with the page automatically refreshed every 10 minutes)

About weather observations | Map of weather stations | Latest weather observations for QLD | Other Formats
Station Details ID: 036031 Name: LONGREACH AERO Lat: -23.44 Lon: 144.28 Height: 192.2 m
Data from the previous 72 hours. | See also: Recent months at Longreach
Date/Time
EST
Temp
°C
App
Temp
°C
Dew
Point
Rel
Hum
%
Delta-T
°C
Wind Press
QNH
hPa
Press
MSL
hPa
Rain
since 9 am
mm
Dir
 
Spd
km/h
Gust
km/h
Spd
kts
Gust
kts
24/12:00pm 24.7 19.1 7.3 33 9.2 NNE 26 37 14 20 1018.0 1017.8 0.0
24/11:30am 24.1 18.2 7.4 34 8.8 NNE 28 35 15 19 1018.4 - 0.0
24/11:00am 23.7 17.2 8.1 37 8.3 NNE 32 41 17 22 1018.7 - 0.0
24/10:30am 22.5 15.9 8.7 41 7.4 NNE 33 41 18 22 1018.9 - 0.0
24/10:00am 21.0 14.6 9.5 47 6.2 NNE 33 43 18 23 1018.9 - 0.0
24/09:30am 19.5 13.2 9.8 53 5.2 NNE 33 43 18 23 1018.9 - 0.0
24/09:00am 17.2 11.5 8.5 56 4.5 NNE 28 33 15 18 1018.6 1018.4 0.0
24/08:30am 15.8 10.6 7.2 56 4.3 NNE 24 32 13 17 1018.2 - 0.0
24/08:00am 14.1 9.3 5.5 56 4.1 NNE 20 28 11 15 1018.0 - 0.0
24/07:30am 12.3 7.5 4.4 58 3.6 NE 19 24 10 13 1017.6 - 0.0
24/07:00am 12.3 6.8 3.9 56 3.8 NNE 22 28 12 15 1017.1 - 0.0
24/06:30am 12.9 6.9 3.6 53 4.2 NNE 24 28 13 15 1016.7 - 0.0
24/06:00am 13.0 7.4 3.2 51 4.4 NNE 22 26 12 14 1016.4 1016.1 0.0
24/05:30am 13.1 7.7 2.5 48 4.7 NNE 20 26 11 14 1016.3 - 0.0
24/05:00am 13.8 7.2 2.0 44 5.2 NNE 26 30 14 16 1016.3 - 0.0
24/04:30am 14.4 8.1 1.7 42 5.6 NE 24 32 13 17 1016.3 - 0.0
24/04:00am 14.0 8.3 0.4 39 5.8 NE 20 28 11 15 1016.1 - 0.0
24/03:30am 14.4 9.1 -0.7 35 6.3 ENE 17 20 9 11 1016.0 - 0.0
24/03:00am 13.0 8.0 -0.9 38 5.7 ENE 15 17 8 9 1016.3 1016.0 0.0
24/02:30am 13.5 8.1 -1.5 35 6.1 NE 17 19 9 10 1016.1 - 0.0
24/02:00am 12.3 6.9 -1.7 38 5.6 ENE 17 17 9 9 1016.3 - 0.0
24/01:30am 12.7 8.1 -0.7 39 5.5 ENE 13 15 7 8 1016.4 - 0.0
24/01:00am 13.6 9.3 -1.3 35 6.1 ENE 11 15 6 8 1016.5 - 0.0
24/12:30am 14.3 11.1 -0.5 36 6.2 ENE 6 7 3 4 1016.7 - 0.0
24/12:00am 15.7 11.0 -1.7 30 7.2 NE 13 15 7 8 1016.5 1016.3 0.0
 
Date/Time
EST
Temp
°C
App
Temp
°C
Dew
Point
Rel
Hum
%
Delta-T
°C
Wind Press
QNH
hPa
Press
MSL
hPa
Rain
since 9 am
mm
Dir
 
Spd
km/h
Gust
km/h
Spd
kts
Gust
kts
23/11:30pm 16.4 11.4 -1.5 29 7.5 ENE 15 17 8 9 1016.6 - 0.0
23/11:00pm 17.1 12.0 -1.8 27 7.9 NE 15 19 8 10 1016.8 - 0.0
23/10:30pm 17.2 12.1 -1.6 27 7.9 NE 15 17 8 9 1016.9 - 0.0
23/10:00pm 17.4 12.0 -1.6 27 8.0 ENE 17 19 9 10 1016.7 - 0.0
23/09:30pm 18.1 12.6 -2.2 25 8.5 ENE 17 20 9 11 1016.8 - 0.0
23/09:00pm 18.9 13.0 -2.2 24 8.9 ENE 19 24 10 13 1016.7 1016.5 0.0
23/08:30pm 20.0 13.5 -2.3 22 9.5 ENE 22 28 12 15 1016.5 - 0.0
23/08:00pm 18.5 12.7 -1.8 25 8.6 E 19 20 10 11 1016.6 - 0.0
23/07:30pm 17.9 12.9 -1.0 27 8.1 E 15 17 8 9 1016.3 - 0.0
23/07:00pm 20.3 15.8 -0.5 24 9.2 E 13 17 7 9 1016.1 - 0.0
23/06:30pm 21.6 17.9 -0.2 23 9.8 NE 9 11 5 6 1015.8 - 0.0
23/06:00pm 22.9 19.6 -0.2 21 10.5 N 7 9 4 5 1015.5 1015.2 0.0
23/05:30pm 25.2 21.0 -1.2 17 12.0 N 11 17 6 9 1015.2 - 0.0
23/05:00pm 26.1 21.7 -2.1 15 12.7 N 11 19 6 10 1015.0 - 0.0
23/04:30pm 26.7 22.0 -1.9 15 13.0 N 13 22 7 12 1014.8 - 0.0
23/04:00pm 26.5 22.3 -1.1 16 12.7 N 11 17 6 9 1014.7 - 0.0
23/03:30pm 26.6 21.8 -2.2 15 13.0 NNE 13 26 7 14 1014.5 - 0.0
23/03:00pm 26.8 22.4 -2.6 14 13.2 NE 11 20 6 11 1014.6 1014.4 0.0
23/02:30pm 25.9 21.0 -0.8 17 12.3 NNE 15 24 8 13 1014.9 - 0.0
23/02:00pm 26.7 22.0 -1.5 15 12.9 NNE 13 26 7 14 1015.2 - 0.0
23/01:30pm 26.0 20.7 -0.6 17 12.3 N 17 30 9 16 1016.1 - 0.0
23/01:00pm 25.9 20.2 -0.4 18 12.2 N 19 26 10 14 1016.4 - 0.0
23/12:30pm 25.4 18.9 0.1 19 11.8 N 24 32 13 17 1017.2 - 0.0
23/12:00pm 24.9 19.2 0.5 20 11.4 N 20 33 11 18 1018.0 1017.8 0.0
23/11:30am 23.8 18.7 0.5 21 10.8 N 17 26 9 14 1018.5 - 0.0
23/11:00am 22.7 17.8 -0.7 21 10.5 NE 15 22 8 12 1019.0 - 0.0
23/10:30am 21.4 15.9 -1.9 21 10.1 NE 17 28 9 15 1019.4 - 0.0
23/10:00am 20.4 14.3 -4.2 18 10.1 NE 19 26 10 14 1019.9 - 0.0
23/09:30am 19.2 12.7 -5.7 18 9.8 NE 20 26 11 14 1020.0 - 0.0
23/09:00am 16.0 10.5 -9.9 16 9.0 E 13 17 7 9 1020.1 1019.9 0.0
23/08:30am 12.0 6.3 -13.1 16 7.7 E 13 19 7 10 1019.9 - 0.0
23/08:00am 9.6 4.6 -13.7 18 6.8 E 9 13 5 7 1019.7 - 0.0
23/07:30am 6.2 1.7 -11.7 26 5.2 ENE 7 7 4 4 1019.2 - 0.0
23/07:00am 5.3 0.7 -13.2 25 5.1 ENE 7 9 4 5 1018.9 - 0.0
23/06:30am 7.9 3.5 -12.7 22 6.0 SE 6 7 3 4 1018.6 - 0.0
23/06:00am 6.9 2.3 -14.0 21 5.8 E 7 9 4 5 1018.4 1018.2 0.0
23/05:30am 7.2 2.1 -14.7 19 6.0 SE 9 9 5 5 1017.9 - 0.0
23/05:00am 7.4 2.5 -12.7 22 5.8 ESE 9 13 5 7 1017.5 - 0.0
23/04:30am 8.1 1.2 -14.3 19 6.3 SE 19 22 10 12 1017.3 - 0.0
23/04:00am 7.9 1.7 -14.9 18 6.3 SSE 15 17 8 9 1017.5 - 0.0
23/03:30am 8.2 2.0 -14.8 18 6.4 SE 15 17 8 9 1017.3 - 0.0
23/03:00am 8.3 2.5 -14.5 18 6.4 SE 13 15 7 8 1017.4 1017.2 0.0
23/02:30am 8.4 2.2 -15.0 17 6.5 SE 15 17 8 9 1017.5 - 0.0
23/02:00am 9.0 2.4 -15.6 16 6.8 SE 17 20 9 11 1017.7 - 0.0
23/01:30am 9.2 2.6 -14.9 16 6.8 SE 17 20 9 11 1018.0 - 0.0
23/01:00am 9.8 3.2 -15.4 15 7.1 SE 17 19 9 10 1018.2 - 0.0
23/12:30am 9.8 3.3 -13.8 17 6.9 SE 17 19 9 10 1018.3 - 0.0
23/12:00am 11.4 5.2 -14.2 15 7.6 SE 15 17 8 9 1018.4 1018.2 0.0
 
Date/Time
EST
Temp
°C
App
Temp
°C
Dew
Point
Rel
Hum
%
Delta-T
°C
Wind Press
QNH
hPa
Press
MSL
hPa
Rain
since 9 am
mm
Dir
 
Spd
km/h
Gust
km/h
Spd
kts
Gust
kts
22/11:30pm 11.2 5.0 -14.1 15 7.5 SSE 15 15 8 8 1018.5 - 0.0
22/11:00pm 12.0 5.8 -13.8 15 7.8 SSE 15 17 8 9 1018.6 - 0.0
22/10:30pm 12.7 6.9 -13.9 14 8.1 SSE 13 15 7 8 1018.5 - 0.0
22/10:00pm 13.3 8.0 -11.9 16 8.1 SSE 11 13 6 7 1018.5 - 0.0
22/09:30pm 13.9 8.7 -10.8 17 8.2 SSE 11 11 6 6 1018.4 - 0.0
22/09:00pm 14.9 10.0 -11.2 15 8.7 SE 9 11 5 6 1018.4 1018.2 0.0
22/08:30pm 15.4 10.2 -11.0 15 8.9 SE 11 11 6 6 1018.4 - 0.0
22/08:00pm 16.4 11.2 -11.3 14 9.4 SSE 11 13 6 7 1018.3 - 0.0
22/07:30pm 16.9 12.1 -10.4 14 9.5 SSE 9 11 5 6 1018.3 - 0.0
22/07:00pm 18.5 13.3 -10.7 13 10.3 S 11 13 6 7 1018.3 - 0.0
22/06:30pm 20.4 14.7 -12.0 10 11.4 S 13 15 7 8 1018.0 - 0.0
22/06:00pm 22.0 15.8 -13.8 8 12.4 S 15 20 8 11 1017.7 1017.5 0.0
22/05:30pm 23.7 17.1 -14.2 7 13.3 SSE 17 26 9 14 1017.4 - 0.0
22/05:00pm 24.5 18.0 -13.2 7 13.6 S 17 20 9 11 1017.3 - 0.0
22/04:30pm 25.1 18.4 -16.1 5 14.2 S 17 22 9 12 1017.1 - 0.0
22/04:00pm 25.1 18.7 -11.3 8 13.7 S 17 22 9 12 1017.2 - 0.0
22/03:30pm 25.8 20.1 -13.4 6 14.3 SSW 13 20 7 11 1017.2 - 0.0
22/03:00pm 25.5 20.3 -11.3 8 13.9 SW 11 17 6 9 1017.3 1017.1 0.0
22/02:30pm 25.2 19.7 -15.6 6 14.2 SSE 11 17 6 9 1017.4 - 0.0
22/02:00pm 25.4 19.8 -11.7 8 13.9 S 13 24 7 13 1017.8 - 0.0
22/01:30pm 25.0 19.2 -14.6 6 14.0 S 13 20 7 11 1018.2 - 0.0
22/01:00pm 24.7 19.4 -12.3 8 13.6 SW 11 15 6 8 1018.8 - 0.0
22/12:30pm 24.2 18.9 -12.0 8 13.3 SSE 11 17 6 9 1019.5 - 0.0
22/12:00pm 24.1 19.7 -10.1 9 13.0 SE 7 13 4 7 1020.3 1020.1 0.0
22/11:30am 23.6 18.7 -11.4 9 12.9 SSE 9 17 5 9 1021.0 - 0.0
22/11:00am 22.8 17.8 -14.0 7 12.8 E 9 17 5 9 1021.5 - 0.0
22/10:30am 20.9 16.0 -12.7 9 11.7 E 9 13 5 7 1021.9 - 0.0
22/10:00am 18.3 13.4 -11.5 12 10.3 E 9 13 5 7 1022.1 - 0.0
22/09:30am 15.3 10.7 -12.9 13 9.1 SE 7 9 4 5 1022.1 - 0.0
22/09:00am 11.9 6.9 -14.3 14 7.8 SSE 9 11 5 6 1022.1 1021.9 0.0
22/08:30am 9.8 5.2 -13.2 18 6.8 SSE 7 9 4 5 1021.9 - 0.0
22/08:00am 5.7 2.7 -9.4 33 4.6 CALM 0 0 0 0 1021.6 - 0.0
22/07:30am 3.7 -0.7 -10.5 34 4.3 NNE 7 9 4 5 1021.5 - 0.0
22/07:00am 1.5 -2.8 -12.0 36 3.7 S 6 9 3 5 1021.2 - 0.0
22/06:30am 2.2 -1.3 -10.6 38 3.8 SSW 2 6 1 3 1020.9 - 0.0
22/06:00am 3.8 0.4 -14.8 24 5.0 CALM 0 0 0 0 1020.5 1020.3 0.0
22/05:30am 4.3 - - - - CALM 0 0 0 0 1020.2 - 0.0
22/05:00am 2.6 - - - - NW 6 6 3 3 1020.1 - 0.0
22/04:30am 2.7 - - - - NNW 7 9 4 5 1020.0 - 0.0
22/04:00am 3.9 - - - - S 6 7 3 4 1019.8 - 0.0
22/03:30am 6.5 0.7 -14.4 21 5.7 S 13 13 7 7 1019.8 - 0.0
22/03:00am 5.9 1.0 -12.5 25 5.2 SSW 9 13 5 7 1019.8 1019.6 0.0
22/02:30am 6.5 2.4 -9.4 31 4.9 E 6 7 3 4 1019.6 - 0.0
22/02:00am 6.7 2.2 -11.8 25 5.4 E 7 9 4 5 1019.6 - 0.0
22/01:30am 10.0 4.8 -11.2 21 6.6 ESE 11 11 6 6 1019.7 - 0.0
22/01:00am 8.4 3.7 -9.1 28 5.6 ESE 9 9 5 5 1020.0 - 0.0
22/12:30am 8.6 4.2 -13.0 20 6.3 E 6 9 3 5 1020.1 - 0.0
22/12:00am 10.9 5.6 -12.8 17 7.2 SE 11 13 6 7 1020.3 1020.1 0.0
 
Date/Time
EST
Temp
°C
App
Temp
°C
Dew
Point
Rel
Hum
%
Delta-T
°C
Wind Press
QNH
hPa
Press
MSL
hPa
Rain
since 9 am
mm
Dir
 
Spd
km/h
Gust
km/h
Spd
kts
Gust
kts
21/11:30pm 12.7 7.0 -12.4 16 7.9 SSE 13 15 7 8 1020.4 - 0.0
21/11:00pm 12.5 6.8 -12.3 16 7.8 SE 13 15 7 8 1020.5 - 0.0
21/10:30pm 12.7 6.9 -13.9 14 8.1 SE 13 15 7 8 1020.5 - 0.0
21/10:00pm 11.5 7.0 -11.8 18 7.3 S 7 7 4 4 1020.4 - 0.0
21/09:30pm 11.7 7.0 -8.8 23 6.9 SSE 9 9 5 5 1020.4 - 0.0
21/09:00pm 14.6 9.6 -13.0 13 8.8 S 9 11 5 6 1020.5 1020.3 0.0
21/08:30pm 14.9 9.6 -12.7 13 8.9 S 11 13 6 7 1020.5 - 0.0
21/08:00pm 16.1 10.8 -11.6 14 9.3 S 11 13 6 7 1020.3 - 0.0
21/07:30pm 17.0 12.2 -10.1 15 9.5 S 9 11 5 6 1019.8 - 0.0
21/07:00pm 17.6 12.5 -9.6 15 9.7 SSW 11 11 6 6 1019.5 - 0.0
21/06:30pm 18.9 14.6 -4.9 19 9.5 SW 9 11 5 6 1019.2 - 0.0
21/06:00pm 21.2 17.2 -5.7 16 10.8 SW 7 9 4 5 1019.0 1018.8 0.0
21/05:30pm 23.4 18.9 -11.3 9 12.8 S 7 9 4 5 1018.9 - 0.0
21/05:00pm 24.5 21.1 -9.3 10 13.1 WSW 2 7 1 4 1018.7 - 0.0
21/04:30pm 24.3 20.0 -8.6 10 12.9 ENE 7 13 4 7 1018.5 - 0.0
21/04:00pm 24.2 19.7 -12.0 8 13.3 SW 7 9 4 5 1018.4 - 0.0
21/03:30pm 24.2 18.9 -12.0 8 13.3 WSW 11 15 6 8 1018.2 - 0.0
21/03:00pm 24.3 20.0 -9.3 10 13.0 ENE 7 11 4 6 1018.1 1017.9 0.0
21/02:30pm 23.5 19.1 -10.8 9 12.8 S 7 11 4 6 1018.3 - 0.0
21/02:00pm 23.2 18.2 -13.8 7 13.0 NNE 9 17 5 9 1018.3 - 0.0
21/01:30pm 23.1 17.5 -11.7 9 12.7 NE 13 20 7 11 1018.7 - 0.0
21/01:00pm 22.8 17.9 -11.3 9 12.5 NNE 9 19 5 10 1019.3 - 0.0
21/12:30pm 22.1 16.6 -9.6 11 11.9 N 13 19 7 10 1020.0 - 0.0

Other Formats:

Comma delimited format used in spreadsheet applications
http://www.bom.gov.au/fwo/IDQ60801/IDQ60801.94346.axf

JavaScript Object Notation format (JSON) in row-major order
http://www.bom.gov.au/fwo/IDQ60801/IDQ60801.94346.json